Time;durP1;ratioP1;P1;durP2;ratioP2;P2;SDS_P1;SDS_P2;PMS_P1;PMS_P2;Temp;Humidity;BMP_temperature;BMP_pressure;BME280_temperature;BME280_humidity;BME280_pressure;Samples;Min_cycle;Max_cycle;Signal;HPM_P1;HPM_P2
2024/01/10 07:12:36;;;;;;;2.72;0.77;;;;;;;;;;5069084;27;20483;-48
2024/01/10 07:15:04;;;;;;;3.80;1.35;;;;;;;;;;5074541;28;20083;-51
2024/01/10 07:17:30;;;;;;;3.57;1.30;;;;;;;;;;5073954;28;20048;-52
2024/01/10 07:19:57;;;;;;;4.22;1.63;;;;;;;;;;5085310;28;20158;-51
2024/01/10 07:22:24;;;;;;;6.72;1.35;;;;;;;;;;5058005;28;20109;-54
2024/01/10 07:24:51;;;;;;;4.40;1.92;;;;;;;;;;5067916;28;20048;-51
2024/01/10 07:27:18;;;;;;;2.70;1.20;;;;;;;;;;5062428;28;20205;-50
2024/01/10 07:29:47;;;;;;;6.75;2.08;;;;;;;;;;5062533;28;20143;-51
2024/01/10 07:32:13;;;;;;;;;;;;;;;;;;5057689;28;20055;-49
2024/01/10 07:34:40;;;;;;;3.08;0.93;;;;;;;;;;5069741;28;20190;-49
2024/01/10 07:37:09;;;;;;;6.47;1.85;;;;;;;;;;5074305;28;20047;-51
2024/01/10 07:39:35;;;;;;;;;;;;;;;;;;5067745;28;20055;-48
2024/01/10 07:42:02;;;;;;;3.60;1.13;;;;;;;;;;5036451;28;19928;-50
2024/01/10 07:44:29;;;;;;;3.88;1.40;;;;;;;;;;5065647;28;20056;-51
2024/01/10 07:46:57;;;;;;;2.70;1.30;;;;;;;;;;5071058;28;20048;-50
2024/01/10 07:49:24;;;;;;;6.97;1.63;;;;;;;;;;5082773;28;20050;-48
2024/01/10 07:51:50;;;;;;;8.40;2.03;;;;;;;;;;5069735;28;20044;-52
2024/01/10 07:54:17;;;;;;;9.48;3.25;;;;;;;;;;5081287;28;20056;-53
2024/01/10 07:56:44;;;;;;;7.32;2.55;;;;;;;;;;5077766;28;20115;-49
2024/01/10 07:59:14;;;;;;;7.50;1.80;;;;;;;;;;5077007;28;20104;-52
2024/01/10 08:01:41;;;;;;;7.38;2.35;;;;;;;;;;5044980;28;20051;-52
2024/01/10 08:04:09;;;;;;;5.05;1.23;;;;;;;;;;5083763;28;20129;-48
2024/01/10 08:06:36;;;;;;;8.32;1.88;;;;;;;;;;5067288;28;20076;-52
2024/01/10 08:09:04;;;;;;;5.07;1.73;;;;;;;;;;5070773;28;20162;-50
2024/01/10 08:11:31;;;;;;;5.13;2.05;;;;;;;;;;5076596;28;20056;-52
2024/01/10 08:13:58;;;;;;;7.47;2.15;;;;;;;;;;5089958;28;20095;-51
2024/01/10 08:16:24;;;;;;;1.58;0.80;;;;;;;;;;5086507;28;20069;-53
2024/01/10 08:18:51;;;;;;;8.05;3.17;;;;;;;;;;5063966;28;20959;-49
2024/01/10 08:21:19;;;;;;;6.05;2.15;;;;;;;;;;5058711;28;20125;-51
2024/01/10 08:23:46;;;;;;;3.55;1.27;;;;;;;;;;5049359;28;20128;-50
2024/01/10 08:26:13;;;;;;;2.30;1.10;;;;;;;;;;5071421;28;20052;-50
2024/01/10 08:28:40;;;;;;;4.72;2.30;;;;;;;;;;5060741;28;20907;-52
2024/01/10 08:31:08;;;;;;;3.90;1.23;;;;;;;;;;5061057;28;20056;-53
2024/01/10 08:33:35;;;;;;;2.37;0.90;;;;;;;;;;5063361;28;20118;-51
2024/01/10 08:36:02;;;;;;;4.95;1.90;;;;;;;;;;5049543;28;20317;-53
2024/01/10 08:38:30;;;;;;;9.02;2.60;;;;;;;;;;5063582;28;20114;-50
2024/01/10 08:40:57;;;;;;;6.28;1.42;;;;;;;;;;5055942;28;20112;-51
2024/01/10 08:43:24;;;;;;;5.15;1.83;;;;;;;;;;5070515;28;20067;-53
2024/01/10 08:45:50;;;;;;;6.82;2.15;;;;;;;;;;5053117;28;20057;-50
2024/01/10 08:48:17;;;;;;;6.00;2.33;;;;;;;;;;5046878;28;20064;-54
2024/01/10 08:50:44;;;;;;;3.72;1.50;;;;;;;;;;5052299;28;20036;-51
2024/01/10 08:53:11;;;;;;;3.47;1.50;;;;;;;;;;5051466;28;20129;-52
2024/01/10 08:55:40;;;;;;;9.35;2.10;;;;;;;;;;5057129;28;20043;-50
2024/01/10 08:58:06;;;;;;;6.93;2.80;;;;;;;;;;5053231;28;20063;-50
2024/01/10 09:00:33;;;;;;;11.13;3.45;;;;;;;;;;5045876;28;20052;-51
2024/01/10 09:03:00;;;;;;;7.15;2.58;;;;;;;;;;5046105;28;20048;-53
2024/01/10 09:05:27;;;;;;;5.30;1.88;;;;;;;;;;5061271;28;20047;-49
2024/01/10 09:07:54;;;;;;;4.47;1.75;;;;;;;;;;5057504;28;20079;-52
2024/01/10 09:10:22;;;;;;;4.68;2.22;;;;;;;;;;5056908;28;20053;-55
2024/01/10 09:12:50;;;;;;;12.63;2.75;;;;;;;;;;5052905;28;20071;-48
2024/01/10 09:15:17;;;;;;;5.18;2.30;;;;;;;;;;5064240;28;20074;-53
2024/01/10 09:17:44;;;;;;;8.98;3.60;;;;;;;;;;5073237;28;20047;-52
2024/01/10 09:20:11;;;;;;;2.55;1.63;;;;;;;;;;5080028;28;20119;-52
2024/01/10 09:22:38;;;;;;;7.22;3.05;;;;;;;;;;5033441;28;20043;-50
2024/01/10 09:25:05;;;;;;;6.20;2.08;;;;;;;;;;5069449;28;20052;-51
2024/01/10 09:27:33;;;;;;;7.53;3.13;;;;;;;;;;5078882;28;20147;-51
2024/01/10 09:30:02;;;;;;;6.18;2.85;;;;;;;;;;5062806;28;20078;-51
2024/01/10 09:32:29;;;;;;;6.00;2.75;;;;;;;;;;5021655;28;20059;-50
2024/01/10 09:34:56;;;;;;;8.20;2.05;;;;;;;;;;5044687;28;20113;-48
2024/01/10 09:37:23;;;;;;;4.97;2.13;;;;;;;;;;5052813;28;20055;-51
2024/01/10 09:39:49;;;;;;;7.78;3.13;;;;;;;;;;5075627;28;20067;-49
2024/01/10 09:42:17;;;;;;;8.73;2.67;;;;;;;;;;5042291;28;20051;-52
2024/01/10 09:44:44;;;;;;;4.73;1.80;;;;;;;;;;5042201;28;20074;-50
2024/01/10 09:47:14;;;;;;;6.15;2.45;;;;;;;;;;5050006;28;20105;-52
2024/01/10 09:49:41;;;;;;;7.65;3.05;;;;;;;;;;5056858;28;20135;-53
2024/01/10 09:52:11;;;;;;;4.93;1.98;;;;;;;;;;5043221;28;20094;-52
2024/01/10 09:54:41;;;;;;;4.38;1.65;;;;;;;;;;5049568;28;20094;-49
2024/01/10 09:57:09;;;;;;;4.13;1.35;;;;;;;;;;5072012;28;20048;-52
2024/01/10 09:59:36;;;;;;;7.20;2.03;;;;;;;;;;5061235;28;20048;-47
2024/01/10 10:02:04;;;;;;;2.25;0.98;;;;;;;;;;5060086;28;20061;-54
2024/01/10 10:04:32;;;;;;;6.90;2.10;;;;;;;;;;5071536;28;20120;-52
2024/01/10 10:07:00;;;;;;;10.85;3.83;;;;;;;;;;5062382;28;20059;-54
2024/01/10 10:09:29;;;;;;;9.85;2.78;;;;;;;;;;5050428;28;20048;-52
2024/01/10 10:11:57;;;;;;;;;;;;;;;;;;5049908;28;20054;-51
2024/01/10 10:14:26;;;;;;;3.25;1.55;;;;;;;;;;5055558;28;19932;-53
2024/01/10 10:16:53;;;;;;;6.30;2.50;;;;;;;;;;5060094;28;20499;-51
2024/01/10 10:19:24;;;;;;;6.50;1.58;;;;;;;;;;5055981;28;20036;-48
2024/01/10 10:21:52;;;;;;;5.75;1.73;;;;;;;;;;5047404;28;20087;-53
2024/01/10 10:24:19;;;;;;;5.38;2.22;;;;;;;;;;5050267;28;20207;-54
2024/01/10 10:26:46;;;;;;;4.22;1.70;;;;;;;;;;5058966;28;20055;-50
2024/01/10 10:29:13;;;;;;;6.60;2.03;;;;;;;;;;5047761;28;20052;-54
2024/01/10 10:31:39;;;;;;;9.30;2.28;;;;;;;;;;5050702;28;20048;-48
2024/01/10 10:34:06;;;;;;;6.53;2.03;;;;;;;;;;5049963;28;20335;-53
2024/01/10 10:36:33;;;;;;;9.75;2.28;;;;;;;;;;5045218;28;20056;-47
2024/01/10 10:39:03;;;;;;;4.28;1.42;;;;;;;;;;5054685;28;20048;-54
2024/01/10 10:41:32;;;;;;;5.55;2.03;;;;;;;;;;5047273;28;20055;-49
2024/01/10 10:43:59;;;;;;;5.45;1.73;;;;;;;;;;5052215;28;20210;-52
2024/01/10 10:46:28;;;;;;;6.30;2.15;;;;;;;;;;5052955;28;20138;-54
2024/01/10 10:49:00;;;;;;;7.80;1.90;;;;;;;;;;5075055;28;20055;-53
2024/01/10 10:51:33;;;;;;;9.50;3.80;;;;;;;;;;5054301;28;20062;-53
2024/01/10 10:54:00;;;;;;;8.48;2.35;;;;;;;;;;5051339;28;20117;-52
2024/01/10 10:56:34;;;;;;;11.25;3.65;;;;;;;;;;5041712;28;20048;-50
2024/01/10 10:59:03;;;;;;;4.97;2.05;;;;;;;;;;5048446;28;20047;-51
2024/01/10 11:01:30;;;;;;;5.90;2.10;;;;;;;;;;5018561;28;20063;-48
2024/01/10 11:03:57;;;;;;;7.75;2.80;;;;;;;;;;5053060;28;20067;-54
2024/01/10 11:06:24;;;;;;;3.55;1.95;;;;;;;;;;5061651;28;20142;-54
2024/01/10 11:08:55;;;;;;;8.55;2.63;;;;;;;;;;5056654;28;20047;-48
2024/01/10 11:11:39;;;;;;;8.00;2.65;;;;;;;;;;5054433;28;20040;-50
2024/01/10 11:14:22;;;;;;;6.40;2.40;;;;;;;;;;5056956;28;20052;-52
2024/01/10 11:17:33;;;;;;;4.68;1.80;;;;;;;;;;5043925;28;20087;-50
2024/01/10 11:20:24;;;;;;;5.68;1.95;;;;;;;;;;5015371;28;20055;-48
2024/01/10 11:23:12;;;;;;;6.05;1.80;;;;;;;;;;5038422;28;20234;-52
2024/01/10 11:25:38;;;;;;;3.55;1.65;;;;;;;;;;5076666;28;20071;-52
2024/01/10 11:28:07;;;;;;;7.88;1.67;;;;;;;;;;5064503;28;20047;-51
2024/01/10 11:30:38;;;;;;;;;;;;;;;;;;5042642;28;20070;-51
2024/01/10 11:33:22;;;;;;;5.07;1.98;;;;;;;;;;5047317;28;19935;-49
2024/01/10 11:36:11;;;;;;;8.00;1.48;;;;;;;;;;5048609;28;20064;-52
2024/01/10 11:38:49;;;;;;;6.20;1.67;;;;;;;;;;5052614;28;20150;-49
2024/01/10 11:41:23;;;;;;;9.68;2.08;;;;;;;;;;5052487;28;20052;-52
2024/01/10 11:44:29;;;;;;;7.55;2.45;;;;;;;;;;5054845;28;20062;-49
2024/01/10 11:46:59;;;;;;;11.65;3.58;;;;;;;;;;5067627;28;20129;-52
2024/01/10 11:49:27;;;;;;;7.80;2.55;;;;;;;;;;5062189;28;20169;-52
2024/01/10 11:51:56;;;;;;;10.23;2.57;;;;;;;;;;5032076;28;20059;-53
2024/01/10 11:54:44;;;;;;;3.85;1.58;;;;;;;;;;5045667;28;20056;-56
2024/01/10 11:57:16;;;;;;;8.35;2.33;;;;;;;;;;5068094;28;20060;-54
2024/01/10 11:59:45;;;;;;;5.72;2.25;;;;;;;;;;5059313;28;20040;-54
2024/01/10 12:02:20;;;;;;;5.03;2.03;;;;;;;;;;5037686;28;20110;-54
2024/01/10 12:04:47;;;;;;;10.57;2.65;;;;;;;;;;5055479;28;20149;-51
2024/01/10 12:07:14;;;;;;;8.20;2.20;;;;;;;;;;5057276;28;20044;-51
2024/01/10 12:09:41;;;;;;;8.75;2.63;;;;;;;;;;5076837;28;20060;-49
2024/01/10 12:12:09;;;;;;;9.52;2.40;;;;;;;;;;5055291;28;20059;-51
2024/01/10 12:14:36;;;;;;;5.55;2.17;;;;;;;;;;5055656;28;20070;-56
2024/01/10 12:17:07;;;;;;;3.67;1.20;;;;;;;;;;5051951;28;20056;-53
2024/01/10 12:19:35;;;;;;;9.35;2.15;;;;;;;;;;5054283;28;20048;-50
2024/01/10 12:22:02;;;;;;;6.28;1.90;;;;;;;;;;5055702;28;20105;-51
2024/01/10 12:24:30;;;;;;;5.30;1.67;;;;;;;;;;5055508;28;20093;-51
2024/01/10 12:26:56;;;;;;;5.68;2.03;;;;;;;;;;5056572;28;20117;-56
2024/01/10 12:29:25;;;;;;;9.30;2.75;;;;;;;;;;5060691;28;20112;-47
2024/01/10 12:31:51;;;;;;;6.10;2.45;;;;;;;;;;5029572;28;20479;-52
2024/01/10 12:34:24;;;;;;;8.18;2.97;;;;;;;;;;5050270;28;20048;-47
2024/01/10 12:36:55;;;;;;;8.73;2.58;;;;;;;;;;5056571;28;20048;-54
2024/01/10 12:39:23;;;;;;;9.63;2.28;;;;;;;;;;5058361;28;20121;-51
2024/01/10 12:41:50;;;;;;;5.60;1.70;;;;;;;;;;5049248;28;20048;-54
2024/01/10 12:44:17;;;;;;;9.18;3.28;;;;;;;;;;5052360;28;20052;-53
2024/01/10 12:46:52;;;;;;;6.25;2.30;;;;;;;;;;5063367;28;20135;-50
2024/01/10 12:49:23;;;;;;;7.50;2.45;;;;;;;;;;5050303;28;20078;-49
2024/01/10 12:51:50;;;;;;;7.78;2.10;;;;;;;;;;5016230;28;20055;-52
2024/01/10 12:54:19;;;;;;;7.15;2.88;;;;;;;;;;5050497;28;20052;-50
2024/01/10 12:56:47;;;;;;;10.10;3.22;;;;;;;;;;5054112;28;20079;-50
2024/01/10 12:59:13;;;;;;;5.82;2.10;;;;;;;;;;5063408;28;20044;-52
2024/01/10 13:01:40;;;;;;;10.95;2.83;;;;;;;;;;5054487;28;20060;-49
2024/01/10 13:04:07;;;;;;;8.45;3.30;;;;;;;;;;5077333;28;20058;-54
2024/01/10 13:06:35;;;;;;;9.20;2.47;;;;;;;;;;5055053;28;20093;-51
2024/01/10 13:09:03;;;;;;;6.40;2.28;;;;;;;;;;5058097;28;20059;-51
2024/01/10 13:11:29;;;;;;;7.13;2.53;;;;;;;;;;5052076;28;20191;-51
2024/01/10 13:13:56;;;;;;;10.95;3.20;;;;;;;;;;5059289;28;20044;-52
2024/01/10 13:16:24;;;;;;;6.40;2.38;;;;;;;;;;5054673;28;20083;-55
2024/01/10 13:18:51;;;;;;;10.23;2.27;;;;;;;;;;5057821;28;20047;-53
2024/01/10 13:21:17;;;;;;;9.38;2.67;;;;;;;;;;5037057;28;20396;-53
2024/01/10 13:23:46;;;;;;;9.25;2.67;;;;;;;;;;5055338;28;20066;-51
2024/01/10 13:26:12;;;;;;;6.88;2.42;;;;;;;;;;5075940;28;20051;-52
2024/01/10 13:28:40;;;;;;;13.35;3.53;;;;;;;;;;5049580;28;20052;-48
2024/01/10 13:31:10;;;;;;;8.90;2.73;;;;;;;;;;5030366;28;20183;-52
2024/01/10 13:33:37;;;;;;;12.10;3.65;;;;;;;;;;5039268;28;20201;-49
2024/01/10 13:36:04;;;;;;;12.57;3.15;;;;;;;;;;5052036;28;20113;-52
2024/01/10 13:38:31;;;;;;;7.90;2.45;;;;;;;;;;5048619;28;20079;-49
2024/01/10 13:40:59;;;;;;;8.73;2.67;;;;;;;;;;5057796;28;20143;-50
2024/01/10 13:43:26;;;;;;;8.40;2.80;;;;;;;;;;5062804;28;20128;-47
2024/01/10 13:45:53;;;;;;;14.20;4.13;;;;;;;;;;5051863;28;20044;-55
2024/01/10 13:48:22;;;;;;;7.88;2.85;;;;;;;;;;5065390;28;20048;-51
2024/01/10 13:50:49;;;;;;;9.60;3.28;;;;;;;;;;5068136;28;20055;-49
2024/01/10 13:53:17;;;;;;;11.52;3.22;;;;;;;;;;5056959;28;20054;-49
2024/01/10 13:55:44;;;;;;;5.47;1.75;;;;;;;;;;5058101;28;20040;-53
2024/01/10 13:58:12;;;;;;;9.60;3.13;;;;;;;;;;5063070;28;20076;-53
2024/01/10 14:00:39;;;;;;;11.77;3.67;;;;;;;;;;5055595;28;20108;-50
2024/01/10 14:03:05;;;;;;;9.45;2.75;;;;;;;;;;5036453;28;20106;-51
2024/01/10 14:05:32;;;;;;;8.55;3.13;;;;;;;;;;5070280;28;20347;-52
2024/01/10 14:07:59;;;;;;;10.68;3.80;;;;;;;;;;5056897;28;20051;-53
2024/01/10 14:10:25;;;;;;;10.18;2.50;;;;;;;;;;5066665;28;20044;-50
2024/01/10 14:12:52;;;;;;;7.07;2.72;;;;;;;;;;5051484;28;20052;-52
2024/01/10 14:15:20;;;;;;;11.48;2.85;;;;;;;;;;5038039;28;20052;-51
2024/01/10 14:17:48;;;;;;;7.13;2.83;;;;;;;;;;5060704;28;20121;-47
2024/01/10 14:20:18;;;;;;;7.05;2.53;;;;;;;;;;5065097;28;20048;-52
2024/01/10 14:22:48;;;;;;;4.85;1.90;;;;;;;;;;5039136;28;20036;-51
2024/01/10 14:25:15;;;;;;;12.75;3.50;;;;;;;;;;5066841;28;20055;-49
2024/01/10 14:27:42;;;;;;;8.63;2.95;;;;;;;;;;5046317;28;20075;-57
2024/01/10 14:30:08;;;;;;;9.75;3.17;;;;;;;;;;5056541;28;20045;-49
2024/01/10 14:32:37;;;;;;;7.00;2.78;;;;;;;;;;5052727;28;20129;-55
2024/01/10 14:35:09;;;;;;;7.95;2.78;;;;;;;;;;5063365;28;20153;-52
2024/01/10 14:37:36;;;;;;;12.48;3.75;;;;;;;;;;5071860;28;20063;-51
2024/01/10 14:40:05;;;;;;;12.82;4.00;;;;;;;;;;5057841;28;20127;-55
2024/01/10 14:42:33;;;;;;;9.18;3.15;;;;;;;;;;5046017;28;20060;-51
2024/01/10 14:45:00;;;;;;;12.43;3.20;;;;;;;;;;5066188;28;20075;-54
2024/01/10 14:47:29;;;;;;;9.13;3.10;;;;;;;;;;5052726;28;20052;-52
2024/01/10 14:49:58;;;;;;;5.80;2.85;;;;;;;;;;5078367;28;20059;-51
2024/01/10 14:52:25;;;;;;;9.35;3.80;;;;;;;;;;5039901;28;20133;-56
2024/01/10 14:54:52;;;;;;;17.02;4.68;;;;;;;;;;5060521;28;20111;-51
2024/01/10 14:57:19;;;;;;;15.68;4.10;;;;;;;;;;5061804;28;20036;-52
2024/01/10 14:59:49;;;;;;;11.98;4.45;;;;;;;;;;5064768;28;20052;-52
2024/01/10 15:02:18;;;;;;;9.35;3.35;;;;;;;;;;5047571;28;20041;-54
2024/01/10 15:04:47;;;;;;;10.20;4.13;;;;;;;;;;5068245;28;20090;-53
2024/01/10 15:07:15;;;;;;;7.28;3.22;;;;;;;;;;5077762;28;20048;-51
2024/01/10 15:09:46;;;;;;;12.05;4.00;;;;;;;;;;5065839;28;20048;-53
2024/01/10 15:12:12;;;;;;;9.95;3.63;;;;;;;;;;5016375;28;20045;-50
2024/01/10 15:14:42;;;;;;;8.43;3.13;;;;;;;;;;5060474;28;20051;-57
2024/01/10 15:17:09;;;;;;;11.50;3.60;;;;;;;;;;5063682;28;20048;-51
2024/01/10 15:19:36;;;;;;;7.63;2.75;;;;;;;;;;5061432;28;20054;-54
2024/01/10 15:22:03;;;;;;;12.85;3.13;;;;;;;;;;5048190;28;20121;-53
2024/01/10 15:24:35;;;;;;;13.07;3.22;;;;;;;;;;5073323;28;20063;-53
2024/01/10 15:27:08;;;;;;;11.68;3.28;;;;;;;;;;5046064;28;20045;-56
2024/01/10 15:29:36;;;;;;;9.40;2.58;;;;;;;;;;5061987;28;20463;-56
2024/01/10 15:32:03;;;;;;;8.98;3.50;;;;;;;;;;5039750;28;20052;-55
2024/01/10 15:34:30;;;;;;;9.38;3.83;;;;;;;;;;5046896;28;20063;-52
2024/01/10 15:36:58;;;;;;;17.92;5.55;;;;;;;;;;5074102;28;20080;-50
2024/01/10 15:39:26;;;;;;;13.43;3.00;;;;;;;;;;5072787;28;20040;-52
2024/01/10 15:41:55;;;;;;;15.77;6.20;;;;;;;;;;5055555;28;20078;-53
2024/01/10 15:44:22;;;;;;;15.88;5.60;;;;;;;;;;5070657;28;20045;-57
2024/01/10 15:46:51;;;;;;;22.73;5.40;;;;;;;;;;5072480;28;20052;-52
2024/01/10 15:49:18;;;;;;;13.98;4.40;;;;;;;;;;5068712;28;20105;-50
2024/01/10 15:51:45;;;;;;;11.15;4.13;;;;;;;;;;5058729;28;20052;-57
2024/01/10 15:54:12;;;;;;;6.72;3.08;;;;;;;;;;5083386;28;20067;-54
2024/01/10 15:56:40;;;;;;;8.63;3.10;;;;;;;;;;5071180;28;20048;-51
2024/01/10 15:59:09;;;;;;;12.75;5.05;;;;;;;;;;5065130;28;20044;-56
2024/01/10 16:01:36;;;;;;;16.27;3.92;;;;;;;;;;5072640;28;20056;-51
2024/01/10 16:04:03;;;;;;;13.52;3.95;;;;;;;;;;5061648;28;20109;-51
2024/01/10 16:06:29;;;;;;;9.13;3.03;;;;;;;;;;5059700;28;20128;-54
2024/01/10 16:08:56;;;;;;;15.95;5.32;;;;;;;;;;5060065;28;20048;-51
2024/01/10 16:11:23;;;;;;;9.25;3.58;;;;;;;;;;5055817;28;20056;-54
2024/01/10 16:13:50;;;;;;;9.95;3.78;;;;;;;;;;5054551;28;20063;-53
2024/01/10 16:16:25;;;;;;;10.35;3.53;;;;;;;;;;5056909;28;20054;-54
2024/01/10 16:18:52;;;;;;;10.48;3.50;;;;;;;;;;5064518;28;20063;-51
2024/01/10 16:21:20;;;;;;;12.50;3.60;;;;;;;;;;5064630;28;20074;-53
2024/01/10 16:23:47;;;;;;;8.82;3.80;;;;;;;;;;5063751;28;20048;-53
2024/01/10 16:26:14;;;;;;;10.73;3.17;;;;;;;;;;5057337;28;20041;-51
2024/01/10 16:28:42;;;;;;;7.70;2.67;;;;;;;;;;5043664;28;20095;-54
2024/01/10 16:31:09;;;;;;;7.32;3.30;;;;;;;;;;5039916;28;20071;-50
2024/01/10 16:33:37;;;;;;;12.60;4.20;;;;;;;;;;5066380;28;20135;-49
2024/01/10 16:36:04;;;;;;;10.18;3.35;;;;;;;;;;5065635;28;20044;-50
2024/01/10 16:38:31;;;;;;;9.80;3.45;;;;;;;;;;5054894;28;20052;-54
2024/01/10 16:41:10;;;;;;;8.40;3.40;;;;;;;;;;5043830;28;20052;-54
2024/01/10 16:43:37;;;;;;;11.02;3.42;;;;;;;;;;5065154;28;20063;-51
2024/01/10 16:46:04;;;;;;;14.18;3.67;;;;;;;;;;5069513;28;20048;-49
2024/01/10 16:48:30;;;;;;;12.88;3.33;;;;;;;;;;5053975;28;20047;-50
2024/01/10 16:50:59;;;;;;;11.25;3.53;;;;;;;;;;5051599;28;20048;-51
2024/01/10 16:53:26;;;;;;;;;;;;;;;;;;5063511;28;20131;-50
2024/01/10 16:55:53;;;;;;;7.05;2.35;;;;;;;;;;5060045;28;19927;-53
2024/01/10 16:58:20;;;;;;;10.40;2.92;;;;;;;;;;5054238;28;20076;-52
2024/01/10 17:00:47;;;;;;;10.40;3.50;;;;;;;;;;5041104;28;20054;-52
2024/01/10 17:03:14;;;;;;;11.55;3.25;;;;;;;;;;5040483;28;20500;-46
2024/01/10 17:05:41;;;;;;;11.30;3.97;;;;;;;;;;5045292;28;20052;-51
2024/01/10 17:08:09;;;;;;;11.57;3.65;;;;;;;;;;5062186;28;20051;-49
2024/01/10 17:10:36;;;;;;;9.85;3.35;;;;;;;;;;5056109;28;20143;-49
2024/01/10 17:13:04;;;;;;;11.85;3.17;;;;;;;;;;5057775;28;20107;-49
2024/01/10 17:15:31;;;;;;;14.88;4.07;;;;;;;;;;5049256;28;20059;-53
2024/01/10 17:17:58;;;;;;;8.95;3.03;;;;;;;;;;5052783;28;20036;-53
2024/01/10 17:20:27;;;;;;;12.50;3.28;;;;;;;;;;5063154;28;20052;-53
2024/01/10 17:22:54;;;;;;;;;;;;;;;;;;5039764;28;20204;-53
2024/01/10 17:25:23;;;;;;;9.88;3.08;;;;;;;;;;5049098;28;19936;-56
2024/01/10 17:27:49;;;;;;;;;;;;;;;;;;5058110;28;20040;-49
2024/01/10 17:30:17;;;;;;;7.05;2.65;;;;;;;;;;5054911;28;19924;-52
2024/01/10 17:32:43;;;;;;;8.68;3.45;;;;;;;;;;5037288;28;20102;-52
2024/01/10 17:35:10;;;;;;;9.68;2.85;;;;;;;;;;5057483;28;20047;-50
2024/01/10 17:37:37;;;;;;;11.20;3.72;;;;;;;;;;5050257;28;20056;-55
2024/01/10 17:40:05;;;;;;;7.80;3.17;;;;;;;;;;5059749;28;20049;-49
2024/01/10 17:42:33;;;;;;;10.40;3.43;;;;;;;;;;5047992;28;20048;-50
2024/01/10 17:44:59;;;;;;;11.00;3.38;;;;;;;;;;5051693;28;20136;-46
2024/01/10 17:47:26;;;;;;;9.68;3.55;;;;;;;;;;5053854;28;20044;-52
2024/01/10 17:49:53;;;;;;;9.35;3.55;;;;;;;;;;5064005;28;20068;-52
2024/01/10 17:52:19;;;;;;;9.75;3.38;;;;;;;;;;5037360;28;20070;-53
2024/01/10 17:54:47;;;;;;;12.25;3.28;;;;;;;;;;5057631;28;20056;-52
2024/01/10 17:57:14;;;;;;;13.50;3.87;;;;;;;;;;5055997;28;20129;-52
2024/01/10 17:59:42;;;;;;;12.88;4.15;;;;;;;;;;5050224;28;20245;-55
2024/01/10 18:02:09;;;;;;;16.33;3.72;;;;;;;;;;5059624;28;20144;-51
2024/01/10 18:04:35;;;;;;;10.48;3.70;;;;;;;;;;5040602;28;20044;-51
2024/01/10 18:07:02;;;;;;;11.35;4.05;;;;;;;;;;5060101;28;20118;-50
2024/01/10 18:09:29;;;;;;;9.07;3.45;;;;;;;;;;5064800;28;20048;-53
2024/01/10 18:11:56;;;;;;;11.75;4.05;;;;;;;;;;5042447;28;20066;-52
2024/01/10 18:14:23;;;;;;;11.80;3.90;;;;;;;;;;5059611;28;20271;-55
2024/01/10 18:16:51;;;;;;;11.38;4.00;;;;;;;;;;5069881;28;21088;-52
2024/01/10 18:19:17;;;;;;;11.15;3.78;;;;;;;;;;5059369;28;20059;-54
2024/01/10 18:21:44;;;;;;;11.43;3.63;;;;;;;;;;5047944;28;20084;-51
2024/01/10 18:24:11;;;;;;;11.20;3.38;;;;;;;;;;5051251;28;20129;-50
2024/01/10 18:26:37;;;;;;;10.98;4.07;;;;;;;;;;5055101;28;20116;-51
2024/01/10 18:29:04;;;;;;;6.53;2.85;;;;;;;;;;5046640;28;20052;-51
2024/01/10 18:31:31;;;;;;;11.82;3.97;;;;;;;;;;5059631;28;20187;-49
2024/01/10 18:33:59;;;;;;;7.80;3.30;;;;;;;;;;5057364;28;20180;-54
2024/01/10 18:36:26;;;;;;;10.85;4.13;;;;;;;;;;5061696;28;20110;-54
2024/01/10 18:38:53;;;;;;;8.35;2.85;;;;;;;;;;5057782;28;20044;-51
2024/01/10 18:41:19;;;;;;;11.65;3.95;;;;;;;;;;5041455;28;20068;-49
2024/01/10 18:43:49;;;;;;;16.10;3.80;;;;;;;;;;5058216;28;20085;-55
2024/01/10 18:46:16;;;;;;;8.60;3.72;;;;;;;;;;5045659;28;20041;-51
2024/01/10 18:48:43;;;;;;;7.63;2.92;;;;;;;;;;5051550;28;20075;-51
2024/01/10 18:51:11;;;;;;;8.15;3.15;;;;;;;;;;5055325;28;20068;-47
2024/01/10 18:53:38;;;;;;;10.82;2.78;;;;;;;;;;5053529;28;20067;-47
2024/01/10 18:56:05;;;;;;;9.68;3.35;;;;;;;;;;5053416;28;20048;-51
2024/01/10 18:58:35;;;;;;;10.77;3.40;;;;;;;;;;5053516;28;20056;-54
2024/01/10 19:01:01;;;;;;;6.32;2.63;;;;;;;;;;5061940;28;20104;-53
2024/01/10 19:03:29;;;;;;;8.70;3.17;;;;;;;;;;5051701;28;20048;-54
2024/01/10 19:05:56;;;;;;;8.60;3.25;;;;;;;;;;5054072;28;20056;-53
2024/01/10 19:08:26;;;;;;;8.70;2.95;;;;;;;;;;5047384;28;20048;-53
2024/01/10 19:10:52;;;;;;;8.77;3.40;;;;;;;;;;5048567;28;20983;-51
2024/01/10 19:13:19;;;;;;;8.80;3.50;;;;;;;;;;5046242;28;20040;-47
2024/01/10 19:15:47;;;;;;;12.77;3.63;;;;;;;;;;5071865;28;20060;-51
2024/01/10 19:18:14;;;;;;;11.82;3.67;;;;;;;;;;5046448;28;20076;-52
2024/01/10 19:20:41;;;;;;;7.93;3.10;;;;;;;;;;5047679;28;20295;-53
2024/01/10 19:23:09;;;;;;;11.68;3.17;;;;;;;;;;5048972;28;20048;-53
2024/01/10 19:25:39;;;;;;;10.18;2.97;;;;;;;;;;5051767;28;20060;-49
2024/01/10 19:28:07;;;;;;;13.20;3.72;;;;;;;;;;5053670;28;20080;-50
2024/01/10 19:30:34;;;;;;;12.13;3.97;;;;;;;;;;5037936;28;20052;-51
2024/01/10 19:33:01;;;;;;;12.98;4.53;;;;;;;;;;5057183;28;20073;-50
2024/01/10 19:35:28;;;;;;;10.00;3.03;;;;;;;;;;5069041;28;20049;-53
2024/01/10 19:37:55;;;;;;;10.18;3.25;;;;;;;;;;5053878;28;20060;-54
2024/01/10 19:40:22;;;;;;;11.27;4.15;;;;;;;;;;5054986;28;20048;-49
2024/01/10 19:42:50;;;;;;;14.05;3.88;;;;;;;;;;5041673;28;20090;-50
2024/01/10 19:45:17;;;;;;;11.77;3.70;;;;;;;;;;5058225;28;20083;-53
2024/01/10 19:47:43;;;;;;;15.13;6.18;;;;;;;;;;5068251;28;20044;-50
2024/01/10 19:50:12;;;;;;;14.55;3.65;;;;;;;;;;5057171;28;20119;-52
2024/01/10 19:52:39;;;;;;;13.27;4.07;;;;;;;;;;5042423;28;20161;-52
2024/01/10 19:55:07;;;;;;;23.23;6.90;;;;;;;;;;5060781;28;20048;-51
2024/01/10 19:57:35;;;;;;;16.43;5.63;;;;;;;;;;5054796;28;20052;-52
2024/01/10 20:00:03;;;;;;;15.40;4.47;;;;;;;;;;5054314;28;20028;-51
2024/01/10 20:02:30;;;;;;;9.52;3.83;;;;;;;;;;5060354;28;20112;-49
2024/01/10 20:04:59;;;;;;;10.48;3.33;;;;;;;;;;5052722;28;20071;-47
2024/01/10 20:07:26;;;;;;;20.27;5.57;;;;;;;;;;5044288;28;20036;-50
2024/01/10 20:09:55;;;;;;;15.75;3.92;;;;;;;;;;5064192;28;20114;-53
2024/01/10 20:12:25;;;;;;;12.48;3.67;;;;;;;;;;5047504;28;20064;-53
2024/01/10 20:14:55;;;;;;;12.77;3.03;;;;;;;;;;5055513;28;20079;-54
2024/01/10 20:17:23;;;;;;;14.32;4.75;;;;;;;;;;5057114;28;20040;-51
2024/01/10 20:19:53;;;;;;;11.90;3.80;;;;;;;;;;5053228;28;20044;-52
2024/01/10 20:22:20;;;;;;;13.48;4.30;;;;;;;;;;5035956;28;20044;-56
2024/01/10 20:24:46;;;;;;;11.27;3.85;;;;;;;;;;5065696;28;20899;-51
2024/01/10 20:27:16;;;;;;;13.55;3.72;;;;;;;;;;5065267;28;21243;-54
2024/01/10 20:29:47;;;;;;;12.63;3.83;;;;;;;;;;5049711;28;20120;-51
2024/01/10 20:32:14;;;;;;;12.05;3.92;;;;;;;;;;5056973;28;20047;-53
2024/01/10 20:34:46;;;;;;;12.87;4.60;;;;;;;;;;5055114;28;20048;-54
2024/01/10 20:37:15;;;;;;;10.57;3.42;;;;;;;;;;5052935;28;20125;-50
2024/01/10 20:39:42;;;;;;;10.55;2.97;;;;;;;;;;5062239;28;20055;-54
2024/01/10 20:42:09;;;;;;;10.25;2.95;;;;;;;;;;5061928;28;20066;-49
2024/01/10 20:44:36;;;;;;;11.95;3.22;;;;;;;;;;5047499;28;20048;-52
2024/01/10 20:47:03;;;;;;;11.93;3.75;;;;;;;;;;5056799;28;20036;-51
2024/01/10 20:49:30;;;;;;;11.60;3.17;;;;;;;;;;5059877;28;20052;-50
2024/01/10 20:51:58;;;;;;;11.52;3.80;;;;;;;;;;5054568;28;20053;-55
2024/01/10 20:54:25;;;;;;;8.85;3.63;;;;;;;;;;5044528;28;20052;-56
2024/01/10 20:56:52;;;;;;;12.23;4.10;;;;;;;;;;5055412;28;20044;-52
2024/01/10 20:59:18;;;;;;;9.27;3.35;;;;;;;;;;5052924;28;20052;-51
2024/01/10 21:01:45;;;;;;;19.65;5.20;;;;;;;;;;5046081;28;20067;-51
2024/01/10 21:04:12;;;;;;;8.18;3.70;;;;;;;;;;5059660;28;20072;-50
2024/01/10 21:06:38;;;;;;;17.85;3.83;;;;;;;;;;5045919;28;20056;-50
2024/01/10 21:09:06;;;;;;;24.50;8.93;;;;;;;;;;5051001;28;20132;-50
2024/01/10 21:11:33;;;;;;;11.02;4.38;;;;;;;;;;5043505;28;20055;-50
2024/01/10 21:14:00;;;;;;;11.88;4.20;;;;;;;;;;5063063;28;20056;-54
2024/01/10 21:16:27;;;;;;;17.95;4.75;;;;;;;;;;5054389;28;20098;-57
2024/01/10 21:18:56;;;;;;;12.00;3.72;;;;;;;;;;5062625;28;20149;-49
2024/01/10 21:21:24;;;;;;;8.30;3.30;;;;;;;;;;5054720;28;20060;-54
2024/01/10 21:23:51;;;;;;;13.70;2.85;;;;;;;;;;5053735;28;20361;-55
2024/01/10 21:26:19;;;;;;;8.43;3.22;;;;;;;;;;5051209;28;20060;-54
2024/01/10 21:28:46;;;;;;;9.80;3.60;;;;;;;;;;5050800;28;20056;-50
2024/01/10 21:31:13;;;;;;;11.57;3.95;;;;;;;;;;5042679;28;20151;-50
2024/01/10 21:33:40;;;;;;;9.77;3.58;;;;;;;;;;5054128;28;20066;-53
2024/01/10 21:36:08;;;;;;;10.05;3.78;;;;;;;;;;5055870;28;20055;-53
2024/01/10 21:38:35;;;;;;;11.63;4.13;;;;;;;;;;5049505;28;20048;-52
2024/01/10 21:41:02;;;;;;;12.20;3.92;;;;;;;;;;5066359;28;20064;-51
2024/01/10 21:43:32;;;;;;;12.52;3.88;;;;;;;;;;5044762;28;20048;-53
2024/01/10 21:45:59;;;;;;;10.00;3.70;;;;;;;;;;5055754;28;20090;-54
2024/01/10 21:48:26;;;;;;;10.75;3.30;;;;;;;;;;5058351;28;20048;-55
2024/01/10 21:50:52;;;;;;;10.57;3.42;;;;;;;;;;5069099;28;20056;-51
2024/01/10 21:53:19;;;;;;;10.10;4.13;;;;;;;;;;5045827;28;20052;-48
2024/01/10 21:55:46;;;;;;;13.82;4.00;;;;;;;;;;5050985;28;20048;-52
2024/01/10 21:58:16;;;;;;;10.00;2.95;;;;;;;;;;5050070;28;20056;-53